createdAt,value
2016-09-08T00:00:24.053Z,99.29
2016-09-08T00:01:25.149Z,99.34
2016-09-08T00:02:25.190Z,98.96
2016-09-08T00:03:30.922Z,98.79
2016-09-08T00:04:26.062Z,98.70
2016-09-08T00:05:26.211Z,98.55
2016-09-08T00:06:28.362Z,98.52
2016-09-08T00:10:33.463Z,98.52
2016-09-08T00:11:26.589Z,98.19
2016-09-08T00:12:27.152Z,98.22
2016-09-08T00:13:38.679Z,98.26
2016-09-08T00:14:25.698Z,98.30
2016-09-08T00:15:36.948Z,98.18
2016-09-08T00:16:33.218Z,98.67
2016-09-08T00:17:43.677Z,99.06
2016-09-08T00:18:21.411Z,99.32
2016-09-08T00:19:25.684Z,98.97
2016-09-08T00:20:33.533Z,98.99
2016-09-08T00:21:20.446Z,99.01
2016-09-08T00:22:27.937Z,99.15
2016-09-08T00:23:22.908Z,98.90
2016-09-08T00:24:25.944Z,98.57
2016-09-08T00:25:26.222Z,98.86
2016-09-08T00:26:26.234Z,98.54
2016-09-08T00:27:26.176Z,98.46
2016-09-08T00:28:33.932Z,98.61
2016-09-08T00:29:27.124Z,98.55
2016-09-08T00:30:26.189Z,98.66
2016-09-08T00:31:26.311Z,98.86
2016-09-08T00:32:26.686Z,98.81
2016-09-08T00:33:27.580Z,99.35
2016-09-08T00:34:26.282Z,99.29
2016-09-08T00:35:27.496Z,98.98
2016-09-08T00:36:25.698Z,98.99
2016-09-08T00:37:26.145Z,98.94
2016-09-08T00:38:31.416Z,98.68
2016-09-08T00:39:25.696Z,99.09
2016-09-08T00:40:26.988Z,99.12
2016-09-08T00:41:32.195Z,99.49
2016-09-08T00:42:28.208Z,99.55
2016-09-08T00:43:26.781Z,99.15
2016-09-08T00:44:19.729Z,99.05
2016-09-08T00:45:40.710Z,98.78
2016-09-08T00:46:20.943Z,98.97
2016-09-08T00:47:36.185Z,99.32
2016-09-08T00:48:27.849Z,99.40
2016-09-08T00:49:25.785Z,99.11
2016-09-08T00:50:29.437Z,99.44
2016-09-08T00:51:37.006Z,99.38
2016-09-08T00:52:38.671Z,99.14
2016-09-08T00:53:34.011Z,99.10
2016-09-08T00:54:33.041Z,98.88
2016-09-08T00:55:28.116Z,99.00
2016-09-08T00:56:26.987Z,98.87
2016-09-08T00:57:26.183Z,98.94
2016-09-08T00:58:26.249Z,98.82
2016-09-08T00:59:27.884Z,99.19
2016-09-08T01:00:43.655Z,99.16
2016-09-08T01:01:26.175Z,99.21
2016-09-08T01:02:28.146Z,99.01
2016-09-08T01:03:26.648Z,98.83
2016-09-08T01:04:22.934Z,98.91
2016-09-08T01:05:37.476Z,99.17
2016-09-08T01:06:32.548Z,99.39
2016-09-08T01:07:32.604Z,99.00
2016-09-08T01:08:20.838Z,99.33
2016-09-08T01:09:32.197Z,99.60
2016-09-08T01:10:26.450Z,99.45
2016-09-08T01:11:25.629Z,99.49
2016-09-08T01:12:26.292Z,99.40
2016-09-08T01:13:27.048Z,99.25
2016-09-08T01:14:21.189Z,99.63
2016-09-08T01:16:12.031Z,99.73
2016-09-08T01:16:42.367Z,99.67
2016-09-08T01:18:32.169Z,99.85
2016-09-08T01:19:34.256Z,99.75
2016-09-08T01:20:32.318Z,99.74
2016-09-08T01:21:38.272Z,99.29
2016-09-08T01:22:25.992Z,98.94
2016-09-08T01:23:29.179Z,98.76
2016-09-08T01:24:26.173Z,98.99
2016-09-08T01:25:33.671Z,98.68
2016-09-08T01:26:29.153Z,98.71
2016-09-08T01:27:26.933Z,98.62
2016-09-08T01:28:29.469Z,98.78
2016-09-08T01:29:26.078Z,98.71
2016-09-08T01:30:32.167Z,98.98
2016-09-08T01:31:27.974Z,98.92
2016-09-08T01:32:26.858Z,99.15
2016-09-08T01:33:28.692Z,98.97
2016-09-08T01:34:34.781Z,98.76
2016-09-08T01:35:26.989Z,98.83
2016-09-08T01:36:32.035Z,98.96
2016-09-08T01:37:25.812Z,98.95
2016-09-08T01:38:27.430Z,98.75
2016-09-08T01:39:34.484Z,98.42
2016-09-08T01:40:28.212Z,98.01
2016-09-08T01:41:26.956Z,97.99
2016-09-08T01:42:26.032Z,97.88
2016-09-08T01:43:26.083Z,97.81
2016-09-08T01:44:26.019Z,98.14
2016-09-08T01:45:26.198Z,97.96
2016-09-08T01:46:37.309Z,98.26
2016-09-08T01:47:29.775Z,98.22
2016-09-08T01:48:38.732Z,98.06
2016-09-08T01:49:26.735Z,98.06
2016-09-08T01:50:26.805Z,98.02
2016-09-08T01:51:25.838Z,97.98
2016-09-08T01:52:32.977Z,98.13
2016-09-08T01:53:28.210Z,98.12
2016-09-08T01:54:44.439Z,98.09
2016-09-08T01:55:26.460Z,98.23
2016-09-08T01:56:27.212Z,98.10
2016-09-08T01:57:32.169Z,98.18
2016-09-08T01:58:20.704Z,98.44
2016-09-08T01:59:25.966Z,98.25
2016-09-08T02:00:32.575Z,97.95
2016-09-08T02:01:27.135Z,98.07
2016-09-08T02:02:34.906Z,98.14
2016-09-08T02:03:27.962Z,98.08
2016-09-08T02:04:31.964Z,98.24
2016-09-08T02:05:32.405Z,98.48
2016-09-08T02:06:40.192Z,98.61
2016-09-08T02:07:37.938Z,98.77
2016-09-08T02:08:28.601Z,98.53
2016-09-08T02:09:32.448Z,98.73
2016-09-08T02:11:27.896Z,98.43
2016-09-08T02:12:35.115Z,98.01
2016-09-08T02:13:33.473Z,98.27
2016-09-08T02:14:33.630Z,98.27
2016-09-08T02:15:26.514Z,98.28
2016-09-08T02:16:26.748Z,98.02
2016-09-08T02:17:27.597Z,98.35
2016-09-08T02:18:38.851Z,98.66
2016-09-08T02:19:27.246Z,98.85
2016-09-08T02:20:36.180Z,98.82
2016-09-08T02:21:27.213Z,99.04
2016-09-08T02:22:26.236Z,99.45
2016-09-08T02:23:34.157Z,98.89
2016-09-08T02:24:26.802Z,98.74
2016-09-08T02:25:27.371Z,98.74
2016-09-08T02:26:27.450Z,98.71
2016-09-08T02:27:27.089Z,98.30
2016-09-08T02:28:27.945Z,97.84
2016-09-08T02:29:26.965Z,97.75
2016-09-08T02:30:26.053Z,97.76
2016-09-08T02:31:32.067Z,97.89
2016-09-08T02:32:24.112Z,97.82
2016-09-08T02:33:27.296Z,97.75
2016-09-08T02:34:27.771Z,98.17
2016-09-08T02:35:44.490Z,98.37
2016-09-08T02:36:29.612Z,98.29
2016-09-08T02:37:34.638Z,98.71
2016-09-08T02:38:27.793Z,98.63
2016-09-08T02:39:31.390Z,98.50
2016-09-08T02:40:26.555Z,98.10
2016-09-08T02:41:32.693Z,98.28
2016-09-08T02:42:27.628Z,98.28
2016-09-08T02:43:26.518Z,98.30
2016-09-08T02:44:26.042Z,98.25
2016-09-08T02:45:33.678Z,97.99
2016-09-08T02:46:27.423Z,97.82
2016-09-08T02:47:32.399Z,97.73
2016-09-08T02:48:28.474Z,97.95
2016-09-08T02:49:20.386Z,97.81
2016-09-08T02:50:24.495Z,97.75
2016-09-08T02:51:28.630Z,97.69
2016-09-08T02:52:37.512Z,97.91
2016-09-08T02:53:26.523Z,97.98
2016-09-08T02:54:27.428Z,97.78
2016-09-08T02:55:25.986Z,97.96
2016-09-08T02:56:25.903Z,98.08
2016-09-08T02:57:18.728Z,97.65
2016-09-08T02:58:32.990Z,97.41
2016-09-08T02:59:26.297Z,97.12
2016-09-08T03:00:28.936Z,96.70
2016-09-08T03:01:27.396Z,97.33
2016-09-08T03:02:37.937Z,96.69
2016-09-08T03:03:28.533Z,96.80
2016-09-08T03:04:32.281Z,97.18
2016-09-08T03:05:26.373Z,97.34
2016-09-08T03:06:26.929Z,97.62
2016-09-08T03:07:39.935Z,97.68
2016-09-08T03:08:33.493Z,97.55
2016-09-08T03:09:27.293Z,97.30
2016-09-08T03:10:28.099Z,97.28
2016-09-08T03:11:30.131Z,97.20
2016-09-08T03:12:37.758Z,97.10
2016-09-08T03:13:38.584Z,97.11
2016-09-08T03:14:28.706Z,96.95
2016-09-08T03:15:38.278Z,97.01
2016-09-08T03:16:26.238Z,97.08
2016-09-08T03:17:26.336Z,97.29
2016-09-08T03:18:26.022Z,96.75
2016-09-08T03:19:27.843Z,96.45
2016-09-08T03:20:52.370Z,96.67
2016-09-08T03:21:22.460Z,96.90
2016-09-08T03:22:38.943Z,96.92
2016-09-08T03:23:28.350Z,97.16
2016-09-08T03:24:27.659Z,97.05
2016-09-08T03:25:30.341Z,97.09
2016-09-08T03:26:26.803Z,97.21
2016-09-08T03:27:27.951Z,97.14
2016-09-08T03:28:28.676Z,96.92
2016-09-08T03:29:33.497Z,96.55
2016-09-08T03:30:26.993Z,96.27
2016-09-08T03:31:26.320Z,96.42
2016-09-08T03:32:27.100Z,96.72
2016-09-08T03:33:27.596Z,96.71
2016-09-08T03:34:32.584Z,96.97
2016-09-08T03:35:27.108Z,97.10
2016-09-08T03:36:42.326Z,97.16
2016-09-08T03:37:27.337Z,97.20
2016-09-08T03:38:24.685Z,97.04
2016-09-08T03:39:24.180Z,96.90
2016-09-08T03:40:26.133Z,96.79
2016-09-08T03:41:31.318Z,96.74
2016-09-08T03:42:27.086Z,96.64
2016-09-08T03:43:24.541Z,96.73
2016-09-08T03:44:27.575Z,97.18
2016-09-08T03:45:27.321Z,97.37
2016-09-08T03:46:26.803Z,97.19
2016-09-08T03:47:26.361Z,97.14
2016-09-08T03:48:26.997Z,96.92
2016-09-08T03:49:29.162Z,97.21
2016-09-08T03:50:26.349Z,98.02
2016-09-08T03:51:27.344Z,98.30
2016-09-08T03:52:42.434Z,97.93
2016-09-08T03:53:32.666Z,97.98
2016-09-08T03:54:22.149Z,97.67
2016-09-08T03:55:37.578Z,97.39
2016-09-08T03:56:26.338Z,97.54
2016-09-08T03:57:33.994Z,97.21
2016-09-08T03:58:32.093Z,97.14
2016-09-08T03:59:26.929Z,97.05
2016-09-08T04:00:38.700Z,97.06
2016-09-08T04:01:33.707Z,96.95
2016-09-08T04:02:27.995Z,97.45
2016-09-08T04:04:22.516Z,97.31
2016-09-08T04:05:38.430Z,97.43
2016-09-08T04:06:55.686Z,97.27
2016-09-08T04:07:28.884Z,97.35
2016-09-08T04:08:34.354Z,97.62
2016-09-08T04:09:26.775Z,97.54
2016-09-08T04:10:26.965Z,97.51
2016-09-08T04:11:33.973Z,97.57
2016-09-08T04:13:32.564Z,97.41
2016-09-08T04:14:25.771Z,98.23
2016-09-08T04:15:26.456Z,98.49
2016-09-08T04:16:25.911Z,98.24
2016-09-08T04:17:26.354Z,97.83
2016-09-08T04:18:32.417Z,97.88
2016-09-08T04:19:22.375Z,97.68
2016-09-08T04:20:32.097Z,98.17
2016-09-08T04:21:34.170Z,98.53
2016-09-08T04:22:27.109Z,98.63
2016-09-08T04:23:25.590Z,98.56
2016-09-08T04:24:22.978Z,98.30
2016-09-08T04:25:31.407Z,98.14
2016-09-08T04:26:26.943Z,98.44
2016-09-08T04:27:39.934Z,98.38
2016-09-08T04:28:31.954Z,98.41
2016-09-08T04:29:30.910Z,98.33
2016-09-08T04:30:27.460Z,98.36
2016-09-08T04:31:26.135Z,98.54
2016-09-08T04:32:27.501Z,98.50
2016-09-08T04:33:31.513Z,98.78
2016-09-08T04:34:26.641Z,98.81
2016-09-08T04:35:44.649Z,98.78
2016-09-08T04:36:37.678Z,98.59
2016-09-08T04:37:48.289Z,98.58
2016-09-08T04:38:48.240Z,98.71
2016-09-08T04:39:32.185Z,98.74
2016-09-08T04:40:34.335Z,98.84
2016-09-08T04:41:39.602Z,98.56
2016-09-08T04:42:33.597Z,98.51
2016-09-08T04:43:31.661Z,98.23
2016-09-08T04:44:27.230Z,98.23
2016-09-08T04:45:24.271Z,98.39
2016-09-08T04:46:27.057Z,98.42
2016-09-08T04:47:27.085Z,98.49
2016-09-08T04:48:32.146Z,99.12
2016-09-08T04:49:32.396Z,99.10
2016-09-08T04:50:46.832Z,99.13
2016-09-08T04:51:44.404Z,98.85
2016-09-08T04:52:26.412Z,98.85
2016-09-08T04:53:33.591Z,98.97
2016-09-08T04:54:27.465Z,98.58
2016-09-08T04:55:23.666Z,98.44
2016-09-08T04:56:32.586Z,98.93
2016-09-08T04:57:26.015Z,99.02
2016-09-08T04:58:25.577Z,98.85
2016-09-08T04:59:27.516Z,99.40
2016-09-08T05:00:28.730Z,99.15
2016-09-08T05:01:25.879Z,98.84
2016-09-08T05:02:50.229Z,99.05
2016-09-08T05:03:22.378Z,99.13
2016-09-08T05:04:32.509Z,99.31
2016-09-08T05:05:38.919Z,99.21
2016-09-08T05:06:42.605Z,99.48
2016-09-08T05:07:37.295Z,99.41
2016-09-08T05:08:38.141Z,99.41
2016-09-08T05:09:37.763Z,99.37
2016-09-08T05:10:38.259Z,99.73
2016-09-08T05:11:37.758Z,99.57
2016-09-08T05:12:36.766Z,99.45
2016-09-08T05:13:25.857Z,99.41
2016-09-08T05:14:37.163Z,99.32
2016-09-08T05:15:26.860Z,99.77
2016-09-08T05:16:26.430Z,100.00
2016-09-08T05:17:24.954Z,100.00
2016-09-08T05:18:29.967Z,100.00
2016-09-08T05:19:21.150Z,99.88
2016-09-08T05:20:28.706Z,99.89
2016-09-08T05:21:27.169Z,100.00
2016-09-08T05:22:25.753Z,100.00
2016-09-08T05:23:26.605Z,100.00
2016-09-08T05:24:32.249Z,99.97
2016-09-08T05:25:26.027Z,99.94
2016-09-08T05:26:21.182Z,100.00
2016-09-08T05:27:20.360Z,100.00
2016-09-08T05:28:24.108Z,100.00
2016-09-08T05:29:21.871Z,100.00
2016-09-08T05:30:27.350Z,100.00
2016-09-08T05:31:26.374Z,100.00
2016-09-08T05:32:32.322Z,100.00
2016-09-08T05:33:22.046Z,100.00
2016-09-08T05:34:36.753Z,100.00
2016-09-08T05:35:28.952Z,100.00
2016-09-08T05:36:26.801Z,100.00
2016-09-08T05:37:31.466Z,100.00
2016-09-08T05:38:21.004Z,100.00
2016-09-08T05:39:26.255Z,100.00
2016-09-08T05:40:37.897Z,100.00
2016-09-08T05:41:16.472Z,100.00
2016-09-08T05:42:27.524Z,100.00
2016-09-08T05:43:31.620Z,100.00
2016-09-08T05:44:21.721Z,100.00
2016-09-08T05:45:38.140Z,100.00
2016-09-08T05:46:32.266Z,100.00
2016-09-08T05:47:22.023Z,100.00
2016-09-08T05:48:26.268Z,100.00
2016-09-08T05:49:26.220Z,100.00
2016-09-08T05:50:38.766Z,100.00
2016-09-08T05:51:25.139Z,100.00
2016-09-08T05:52:27.539Z,100.00
2016-09-08T05:53:26.605Z,100.00
2016-09-08T05:54:26.076Z,100.00
2016-09-08T05:55:26.755Z,100.00
2016-09-08T05:56:27.483Z,100.00
2016-09-08T05:57:16.035Z,100.00
2016-09-08T05:58:27.226Z,100.00
2016-09-08T05:59:11.284Z,100.00
2016-09-08T06:00:15.096Z,100.00
2016-09-08T06:01:37.215Z,100.00
2016-09-08T06:02:26.146Z,100.00
2016-09-08T06:03:32.957Z,100.00
2016-09-08T06:05:28.209Z,100.00
2016-09-08T06:06:32.122Z,100.00
2016-09-08T06:07:26.142Z,100.00
2016-09-08T06:08:32.520Z,100.00
2016-09-08T06:09:27.093Z,100.00
2016-09-08T06:10:26.800Z,100.00
2016-09-08T06:11:28.198Z,100.00
2016-09-08T06:12:25.902Z,100.00
2016-09-08T06:13:26.424Z,100.00
2016-09-08T06:14:31.582Z,99.85
2016-09-08T06:15:27.575Z,99.58
2016-09-08T06:16:26.298Z,99.21
2016-09-08T06:17:26.636Z,99.27
2016-09-08T06:18:26.454Z,98.88
2016-09-08T06:19:27.147Z,98.93
2016-09-08T06:20:31.600Z,99.06
2016-09-08T06:21:27.286Z,98.60
2016-09-08T06:22:26.096Z,98.59
2016-09-08T06:23:26.355Z,98.42
2016-09-08T06:24:37.297Z,98.15
2016-09-08T06:25:32.458Z,98.18
2016-09-08T06:26:26.355Z,98.66
2016-09-08T06:27:31.308Z,99.07
2016-09-08T06:28:16.732Z,99.13
2016-09-08T06:29:16.338Z,98.86
2016-09-08T06:30:15.136Z,99.21
2016-09-08T06:31:23.210Z,99.03
2016-09-08T06:32:32.932Z,98.75
2016-09-08T06:33:26.428Z,98.59
2016-09-08T06:34:25.949Z,98.64
2016-09-08T06:35:27.154Z,99.10
2016-09-08T06:36:28.572Z,99.14
2016-09-08T06:37:26.849Z,98.61
2016-09-08T06:38:26.626Z,98.29
2016-09-08T06:39:25.403Z,97.73
2016-09-08T06:40:26.155Z,97.69
2016-09-08T06:41:26.100Z,97.50
2016-09-08T06:42:26.484Z,97.49
2016-09-08T06:43:21.815Z,97.55
2016-09-08T06:44:32.345Z,96.85
2016-09-08T06:45:26.632Z,97.08
2016-09-08T06:46:35.878Z,97.13
2016-09-08T06:47:31.213Z,97.38
2016-09-08T06:48:25.874Z,97.38
2016-09-08T06:49:16.067Z,96.97
2016-09-08T06:50:34.127Z,96.82
2016-09-08T06:51:30.122Z,96.75
2016-09-08T06:52:26.645Z,96.57
2016-09-08T06:53:34.366Z,96.32
2016-09-08T06:54:33.252Z,96.40
2016-09-08T06:55:33.152Z,96.17
2016-09-08T06:56:27.226Z,95.73
2016-09-08T06:57:31.487Z,95.47
2016-09-08T06:58:26.210Z,95.54
2016-09-08T06:59:25.887Z,95.26
2016-09-08T07:00:20.634Z,95.27
2016-09-08T07:01:29.102Z,95.19
2016-09-08T07:02:44.740Z,95.04
2016-09-08T07:03:26.767Z,94.60
2016-09-08T07:04:26.884Z,94.54
2016-09-08T07:05:29.897Z,94.60
2016-09-08T07:06:33.134Z,94.44
2016-09-08T07:07:32.323Z,94.27
2016-09-08T07:08:32.245Z,93.75
2016-09-08T07:09:26.922Z,94.01
2016-09-08T07:10:26.688Z,93.90
2016-09-08T07:11:27.018Z,93.95
2016-09-08T07:12:32.105Z,93.66
2016-09-08T07:13:34.283Z,92.82
2016-09-08T07:14:32.190Z,92.92
2016-09-08T07:15:26.695Z,92.14
2016-09-08T07:16:32.559Z,92.31
2016-09-08T07:17:43.488Z,91.73
2016-09-08T07:18:26.216Z,91.82
2016-09-08T07:19:41.108Z,91.58
2016-09-08T07:20:44.893Z,91.55
2016-09-08T07:21:21.915Z,91.11
2016-09-08T07:22:36.034Z,91.06
2016-09-08T07:23:32.080Z,90.61
2016-09-08T07:24:33.481Z,90.78
2016-09-08T07:25:27.225Z,90.01
2016-09-08T07:28:26.812Z,88.28
2016-09-08T07:31:23.959Z,88.20
2016-09-08T07:32:32.554Z,86.80
2016-09-08T07:33:21.524Z,87.44
2016-09-08T07:34:30.997Z,87.56
2016-09-08T07:35:31.892Z,87.64
2016-09-08T07:36:25.377Z,87.95
2016-09-08T07:37:25.919Z,88.38
2016-09-08T07:38:23.988Z,88.27
2016-09-08T07:39:32.041Z,87.36
2016-09-08T07:40:24.241Z,87.35
2016-09-08T07:41:26.511Z,87.51
2016-09-08T07:43:26.024Z,86.61
2016-09-08T07:44:32.074Z,86.80
2016-09-08T07:45:21.213Z,86.36
2016-09-08T07:46:26.630Z,86.09
2016-09-08T07:47:27.390Z,85.80
2016-09-08T07:48:26.798Z,85.25
2016-09-08T07:49:32.675Z,83.98
2016-09-08T07:50:55.883Z,83.87
2016-09-08T07:51:27.330Z,83.41
2016-09-08T07:52:26.721Z,83.86
2016-09-08T07:53:33.830Z,84.01
2016-09-08T07:54:29.902Z,84.01
2016-09-08T07:55:33.689Z,83.69
2016-09-08T07:56:39.557Z,83.28
2016-09-08T07:57:34.750Z,83.42
2016-09-08T07:58:27.329Z,83.03
2016-09-08T07:59:44.534Z,82.40
2016-09-08T08:00:32.951Z,81.03
2016-09-08T08:01:44.106Z,81.11
2016-09-08T08:02:34.215Z,81.79
2016-09-08T08:03:28.682Z,81.49
2016-09-08T08:05:25.076Z,80.83
2016-09-08T08:06:32.176Z,79.68
2016-09-08T08:07:42.036Z,79.65
2016-09-08T08:08:26.849Z,79.87
2016-09-08T08:09:29.959Z,80.32
2016-09-08T08:10:26.342Z,79.20
2016-09-08T08:11:31.320Z,79.30
2016-09-08T08:12:29.059Z,79.44
2016-09-08T08:13:26.098Z,80.16
2016-09-08T08:14:26.463Z,80.26
2016-09-08T08:15:27.534Z,80.55
2016-09-08T08:17:21.434Z,80.21
2016-09-08T08:18:32.920Z,79.95
2016-09-08T08:19:27.135Z,79.30
2016-09-08T08:31:26.858Z,77.36
2016-09-08T08:32:26.433Z,77.33
2016-09-08T08:33:26.891Z,78.09
2016-09-08T08:34:33.947Z,76.60
2016-09-08T08:35:24.396Z,76.18
2016-09-08T08:36:25.555Z,77.02
2016-09-08T08:37:32.334Z,77.01
2016-09-08T08:38:26.755Z,77.36
2016-09-08T08:39:26.631Z,76.94
2016-09-08T08:40:26.520Z,75.64
2016-09-08T08:41:43.479Z,75.87
2016-09-08T08:42:37.575Z,75.36
2016-09-08T08:43:37.086Z,75.71
2016-09-08T08:44:27.869Z,75.50
2016-09-08T08:45:36.338Z,75.75
2016-09-08T08:46:32.230Z,75.76
2016-09-08T08:47:25.867Z,76.07
2016-09-08T08:48:25.246Z,76.52
2016-09-08T08:49:28.061Z,76.92
2016-09-08T08:51:16.018Z,77.13
2016-09-08T08:51:27.950Z,76.94
2016-09-08T08:52:33.573Z,74.89
2016-09-08T08:53:32.305Z,74.51
2016-09-08T08:54:27.354Z,74.04
2016-09-08T08:55:33.491Z,73.91
2016-09-08T08:56:26.972Z,74.09
2016-09-08T08:57:31.984Z,74.06
2016-09-08T08:59:33.554Z,73.49
2016-09-08T09:02:39.208Z,74.04
2016-09-08T09:04:26.466Z,70.89
2016-09-08T09:05:40.966Z,68.55
2016-09-08T09:06:21.781Z,68.74
2016-09-08T09:07:48.141Z,67.47
2016-09-08T09:08:26.385Z,68.35
2016-09-08T09:09:31.726Z,69.34
2016-09-08T09:10:27.425Z,70.18
2016-09-08T09:11:38.565Z,69.12
2016-09-08T09:12:33.565Z,70.08
2016-09-08T09:14:29.106Z,69.21
2016-09-08T09:15:27.671Z,68.34
2016-09-08T09:18:37.193Z,70.01
2016-09-08T09:19:27.482Z,69.84
2016-09-08T09:20:32.459Z,69.83
2016-09-08T09:22:34.412Z,70.18
2016-09-08T09:23:33.127Z,70.15
2016-09-08T09:24:26.227Z,69.62
2016-09-08T09:25:31.877Z,69.90
2016-09-08T09:26:31.887Z,69.82
2016-09-08T09:27:37.152Z,70.14
2016-09-08T09:28:32.152Z,70.26
2016-09-08T09:29:17.328Z,70.52
2016-09-08T09:30:36.908Z,70.82
2016-09-08T09:31:26.998Z,70.54
2016-09-08T09:32:43.355Z,70.48
2016-09-08T09:33:26.422Z,70.46
2016-09-08T09:34:26.901Z,69.59
2016-09-08T09:35:30.814Z,67.97
2016-09-08T09:36:37.882Z,67.75
2016-09-08T09:37:26.654Z,67.23
2016-09-08T09:38:32.262Z,67.78
2016-09-08T09:39:27.425Z,68.54
2016-09-08T09:41:31.857Z,68.02
2016-09-08T09:41:38.014Z,67.94
2016-09-08T09:42:28.951Z,65.85
2016-09-08T09:43:32.169Z,64.96
2016-09-08T09:44:43.930Z,63.01
2016-09-08T09:45:26.909Z,63.86
2016-09-08T09:46:32.487Z,64.65
2016-09-08T09:47:26.933Z,65.21
2016-09-08T09:48:26.929Z,65.43
2016-09-08T09:49:21.953Z,64.51
2016-09-08T09:51:37.870Z,63.46
2016-09-08T09:52:44.731Z,63.34
2016-09-08T09:53:36.817Z,63.76
2016-09-08T09:54:26.327Z,60.81
2016-09-08T09:55:26.950Z,61.00
2016-09-08T09:56:37.822Z,61.49
2016-09-08T09:57:23.177Z,60.68
2016-09-08T09:58:19.113Z,59.87
2016-09-08T09:59:44.096Z,60.90
2016-09-08T10:00:32.235Z,61.30
2016-09-08T10:01:26.991Z,61.64
2016-09-08T10:02:32.450Z,61.63
2016-09-08T10:03:32.575Z,61.82
2016-09-08T10:04:32.649Z,61.25
2016-09-08T10:05:29.171Z,60.97
2016-09-08T10:06:16.199Z,60.71
2016-09-08T10:07:26.940Z,60.41
2016-09-08T10:08:27.139Z,60.61
2016-09-08T10:09:27.144Z,60.82
2016-09-08T10:10:31.925Z,58.71
2016-09-08T10:11:21.191Z,59.36
2016-09-08T10:12:33.499Z,57.08
2016-09-08T10:13:26.953Z,57.05
2016-09-08T10:14:22.415Z,55.85
2016-09-08T10:15:26.954Z,55.80
2016-09-08T10:16:32.874Z,56.39
2016-09-08T10:17:26.651Z,57.51
2016-09-08T10:19:32.914Z,55.02
2016-09-08T10:20:26.499Z,55.31
2016-09-08T10:21:31.184Z,55.94
2016-09-08T10:22:31.905Z,56.47
2016-09-08T10:23:32.994Z,54.91
2016-09-08T10:24:39.249Z,55.55
2016-09-08T10:25:35.927Z,55.96
2016-09-08T10:30:22.834Z,54.51
2016-09-08T10:31:32.033Z,55.38
2016-09-08T10:32:34.154Z,56.14
2016-09-08T10:33:26.452Z,55.74
2016-09-08T10:34:37.127Z,55.92
2016-09-08T10:35:26.833Z,56.44
2016-09-08T10:36:32.974Z,56.26
2016-09-08T10:38:10.897Z,56.64
2016-09-08T10:39:27.557Z,57.13
2016-09-08T10:40:48.167Z,57.25
2016-09-08T10:42:34.745Z,57.04
2016-09-08T10:43:27.669Z,57.02
2016-09-08T10:44:40.419Z,57.19
2016-09-08T10:45:26.233Z,57.40
2016-09-08T10:46:44.161Z,56.34
2016-09-08T10:47:24.358Z,55.86
2016-09-08T10:48:32.839Z,55.94
2016-09-08T10:49:29.725Z,56.45
2016-09-08T10:50:33.488Z,54.08
2016-09-08T10:51:26.737Z,54.95
2016-09-08T10:52:34.754Z,54.45
2016-09-08T10:53:22.966Z,54.58
2016-09-08T10:54:22.546Z,54.11
2016-09-08T10:55:32.839Z,54.56
2016-09-08T10:56:39.027Z,54.07
2016-09-08T10:57:38.516Z,52.44
2016-09-08T10:58:38.538Z,52.63
2016-09-08T10:59:34.231Z,52.71
2016-09-08T11:01:00.347Z,52.84
2016-09-08T11:01:31.508Z,53.17
2016-09-08T11:02:27.055Z,53.41
2016-09-08T11:03:32.150Z,53.31
2016-09-08T11:04:32.319Z,52.58
2016-09-08T11:05:33.403Z,51.93
2016-09-08T11:06:39.326Z,51.90
2016-09-08T11:08:32.119Z,50.52
2016-09-08T11:09:33.465Z,51.19
2016-09-08T11:11:21.810Z,49.98
2016-09-08T11:12:35.391Z,50.74
2016-09-08T11:13:32.541Z,51.17
2016-09-08T11:14:24.379Z,51.43
2016-09-08T11:15:39.291Z,52.36
2016-09-08T11:17:34.206Z,51.86
2016-09-08T11:18:27.546Z,52.05
2016-09-08T11:19:34.610Z,52.20
2016-09-08T11:20:36.289Z,52.87
2016-09-08T11:21:33.441Z,53.41
2016-09-08T11:22:34.268Z,52.07
2016-09-08T11:23:32.409Z,51.78
2016-09-08T11:24:27.143Z,51.81
2016-09-08T11:25:27.183Z,50.72
2016-09-08T11:26:38.031Z,50.73
2016-09-08T11:27:28.007Z,51.12
2016-09-08T11:28:30.278Z,51.47
2016-09-08T11:29:28.333Z,51.83
2016-09-08T11:30:27.278Z,50.89
2016-09-08T11:31:32.794Z,50.32
2016-09-08T11:32:32.845Z,50.73
2016-09-08T11:33:32.186Z,50.01
2016-09-08T11:34:26.862Z,50.91
2016-09-08T11:35:39.365Z,49.52
2016-09-08T11:36:24.367Z,48.99
2016-09-08T11:37:42.742Z,49.68
2016-09-08T11:38:32.920Z,49.91
2016-09-08T11:39:26.931Z,50.53
2016-09-08T11:40:33.746Z,51.02
2016-09-08T11:41:27.108Z,51.45
2016-09-08T11:42:22.669Z,52.05
2016-09-08T11:43:27.072Z,51.89
2016-09-08T11:44:26.884Z,52.37
2016-09-08T11:45:33.712Z,52.28
2016-09-08T11:46:28.378Z,52.06
2016-09-08T11:47:26.905Z,52.31
2016-09-08T11:48:26.793Z,52.31
2016-09-08T11:49:27.134Z,51.81
2016-09-08T11:50:33.294Z,51.97
2016-09-08T11:51:26.943Z,52.08
2016-09-08T11:52:23.026Z,50.29
2016-09-08T11:53:22.363Z,50.49
2016-09-08T11:54:21.371Z,50.70
2016-09-08T11:55:27.001Z,51.29
2016-09-08T11:56:26.768Z,50.56
2016-09-08T11:57:33.510Z,49.11
2016-09-08T11:58:19.397Z,48.90
2016-09-08T12:00:22.982Z,47.08
2016-09-08T12:01:26.974Z,47.60
2016-09-08T12:02:24.122Z,47.79
2016-09-08T12:03:27.529Z,48.79
2016-09-08T12:04:23.334Z,47.44
2016-09-08T12:05:21.959Z,47.58
2016-09-08T12:06:27.413Z,47.88
2016-09-08T12:07:37.394Z,48.87
2016-09-08T12:08:37.510Z,49.40
2016-09-08T12:09:37.361Z,49.88
2016-09-08T12:10:50.973Z,49.77
2016-09-08T12:11:21.704Z,49.35
2016-09-08T12:12:37.914Z,49.64
2016-09-08T12:13:36.946Z,49.36
2016-09-08T12:14:33.209Z,48.76
2016-09-08T12:15:28.099Z,49.61
2016-09-08T12:16:22.297Z,50.37
2016-09-08T12:17:37.971Z,50.42
2016-09-08T12:18:22.450Z,49.55
2016-09-08T12:19:28.209Z,48.42
2016-09-08T12:20:32.456Z,49.02
2016-09-08T12:21:27.093Z,49.27
2016-09-08T12:22:27.592Z,49.15
2016-09-08T12:23:33.621Z,49.15
2016-09-08T12:24:32.758Z,49.25
2016-09-08T12:25:25.147Z,49.54
2016-09-08T12:26:33.119Z,47.50
2016-09-08T12:27:33.094Z,48.58
2016-09-08T12:28:30.138Z,48.24
2016-09-08T12:29:38.169Z,48.70
2016-09-08T12:30:27.358Z,49.53
2016-09-08T12:31:33.538Z,50.11
2016-09-08T12:32:43.253Z,50.76
2016-09-08T12:33:27.141Z,50.29
2016-09-08T12:34:32.283Z,50.73
2016-09-08T12:35:30.568Z,50.56
2016-09-08T12:36:27.949Z,49.55
2016-09-08T12:37:37.208Z,50.17
2016-09-08T12:38:32.562Z,50.66
2016-09-08T12:40:33.269Z,50.21
2016-09-08T12:41:38.999Z,49.81
2016-09-08T12:45:29.980Z,50.21
2016-09-08T12:46:27.160Z,50.30
2016-09-08T12:47:28.472Z,49.11
2016-09-08T12:48:40.134Z,48.66
2016-09-08T12:50:26.400Z,48.33
2016-09-08T12:51:51.601Z,48.36
2016-09-08T12:52:20.826Z,49.52
2016-09-08T12:53:27.845Z,49.93
2016-09-08T12:54:26.852Z,49.65
2016-09-08T12:55:30.920Z,49.41
2016-09-08T12:56:27.263Z,49.49
2016-09-08T12:57:43.404Z,49.80
2016-09-08T12:58:31.939Z,49.09
2016-09-08T12:59:27.729Z,48.38
2016-09-08T13:00:32.739Z,48.53
2016-09-08T13:01:22.296Z,49.14
2016-09-08T13:02:38.358Z,46.81
2016-09-08T13:03:26.753Z,47.03
2016-09-08T13:06:38.302Z,47.18
2016-09-08T13:07:25.707Z,47.62
2016-09-08T13:08:22.953Z,48.28
2016-09-08T13:09:32.861Z,48.42
2016-09-08T13:11:24.397Z,48.41
2016-09-08T13:12:29.366Z,48.47
2016-09-08T13:13:35.891Z,48.12
2016-09-08T13:14:24.645Z,48.17
2016-09-08T13:16:31.850Z,48.48
2016-09-08T13:17:43.371Z,49.08
2016-09-08T13:18:34.615Z,48.72
2016-09-08T13:19:24.624Z,48.50
2016-09-08T13:20:32.928Z,48.53
2016-09-08T13:21:27.090Z,48.89
2016-09-08T13:22:23.541Z,47.23
2016-09-08T13:23:27.663Z,47.10
2016-09-08T13:26:28.407Z,48.65
2016-09-08T13:27:23.857Z,47.25
2016-09-08T13:28:21.630Z,47.90
2016-09-08T13:29:33.673Z,47.12
2016-09-08T13:30:38.294Z,47.38
2016-09-08T13:31:27.685Z,48.05
2016-09-08T13:32:31.801Z,48.86
2016-09-08T13:33:46.926Z,49.15
2016-09-08T13:34:50.365Z,49.54
2016-09-08T13:36:32.785Z,49.07
2016-09-08T13:37:29.275Z,49.41
2016-09-08T13:38:32.617Z,48.34
2016-09-08T13:39:32.346Z,48.65
2016-09-08T13:41:29.327Z,50.48
2016-09-08T13:42:27.990Z,50.57
2016-09-08T13:43:27.802Z,51.56
2016-09-08T13:44:35.848Z,51.56
2016-09-08T13:45:32.997Z,51.82
2016-09-08T13:46:28.472Z,51.79
2016-09-08T13:47:34.531Z,50.39
2016-09-08T13:48:28.633Z,48.34
2016-09-08T13:49:33.211Z,47.77